Time;durP1;ratioP1;P1;durP2;ratioP2;P2;SDS_P1;SDS_P2;PMS_P1;PMS_P2;Temp;Humidity;BMP_temperature;BMP_pressure;BME280_temperature;BME280_humidity;BME280_pressure;Samples;Min_cycle;Max_cycle;Signal;HPM_P1;HPM_P2
2022/12/17 13:06:49;;;;;;;15.32;7.00;;;;;;;21.11;52.36;100860.22;4995575;28;20076;-86
2022/12/17 13:09:15;;;;;;;16.98;7.70;;;;;;;20.79;52.97;100867.69;5007486;28;20042;-87
2022/12/17 13:11:47;;;;;;;16.98;7.10;;;;;;;20.45;53.00;100857.00;5019558;28;20394;-87
2022/12/17 13:14:46;;;;;;;13.70;7.38;;;;;;;20.26;53.21;100847.06;4995338;28;20046;-86
2022/12/17 13:17:38;;;;;;;16.33;7.30;;;;;;;20.33;53.02;100868.84;5014530;28;20088;-87
2022/12/17 13:20:25;;;;;;;13.25;7.10;;;;;;;20.02;53.80;100895.91;5003410;28;20098;-86
2022/12/17 13:23:03;;;;;;;22.10;8.05;;;;;;;19.84;54.30;100898.50;5017175;28;20045;-89
2022/12/17 13:25:36;;;;;;;14.30;7.28;;;;;;;19.46;54.69;100871.97;5017302;28;20034;-87
2022/12/17 13:28:02;;;;;;;20.67;7.57;;;;;;;19.51;54.94;100902.16;5006519;28;20042;-87
2022/12/17 13:30:36;;;;;;;11.57;7.25;;;;;;;19.14;55.35;100893.63;5021072;28;20045;-84
2022/12/17 13:33:21;;;;;;;12.85;7.15;;;;;;;19.27;55.63;100935.53;4993300;28;20136;-87
2022/12/17 13:36:14;;;;;;;15.53;8.00;;;;;;;19.13;55.75;100935.56;5007972;28;20422;-86
2022/12/17 13:39:09;;;;;;;;;;;;;;;;;;;;;
2022/12/17 13:41:37;;;;;;;18.55;11.38;;;;;;;18.60;56.18;100930.06;5015444;28;20554;-86
2022/12/17 13:44:38;;;;;;;14.55;9.25;;;;;;;18.67;56.63;100969.03;4966887;28;20057;-86
2022/12/17 13:47:19;;;;;;;20.75;7.85;;;;;;;18.23;57.00;100917.84;5021036;28;20425;-85
2022/12/17 13:49:53;;;;;;;16.00;7.50;;;;;;;18.29;56.89;100928.75;5003274;28;20046;-86
2022/12/17 13:52:22;;;;;;;16.00;8.80;;;;;;;18.32;57.37;100960.16;4985216;28;20084;-87
2022/12/17 13:54:55;;;;;;;20.58;8.73;;;;;;;18.53;57.01;100978.22;4999272;28;20073;-86
2022/12/17 13:57:22;;;;;;;13.63;8.07;;;;;;;18.15;56.99;100921.59;4999975;28;20077;-85
2022/12/17 13:59:52;;;;;;;15.77;8.15;;;;;;;18.41;57.32;100982.59;4991969;28;20120;-87
2022/12/17 14:02:29;;;;;;;16.95;7.85;;;;;;;18.21;57.70;100972.44;4992553;28;20114;-86
2022/12/17 14:04:57;;;;;;;14.13;7.53;;;;;;;18.03;58.44;100974.91;5007088;28;20664;-87
2022/12/17 14:07:24;;;;;;;13.48;7.60;;;;;;;17.96;58.34;101003.94;5017978;28;20034;-87
2022/12/17 14:10:22;;;;;;;14.20;7.78;;;;;;;17.71;58.83;100988.09;5002102;28;20038;-86
2022/12/17 14:13:16;;;;;;;14.70;7.65;;;;;;;17.53;59.46;101010.34;5017267;28;20068;-89
2022/12/17 14:15:50;;;;;;;22.08;8.50;;;;;;;17.36;59.41;101006.25;4994728;28;20050;-86
2022/12/17 14:18:17;;;;;;;16.50;7.90;;;;;;;17.18;59.03;100990.44;4967868;28;20054;-84
2022/12/17 14:20:47;;;;;;;14.48;7.95;;;;;;;16.99;58.64;100972.91;4988904;28;20474;-88
2022/12/17 14:23:41;;;;;;;15.35;7.35;;;;;;;16.82;59.56;101010.38;4997284;28;20038;-89
2022/12/17 14:26:16;;;;;;;14.52;7.78;;;;;;;16.62;59.44;101002.84;5012758;28;20038;-86
2022/12/17 14:28:52;;;;;;;18.38;8.30;;;;;;;16.48;59.49;100963.00;5002031;28;20112;-86
2022/12/17 14:31:22;;;;;;;18.95;7.68;;;;;;;16.66;59.54;100993.25;4996704;28;20116;-86
2022/12/17 14:34:06;;;;;;;11.77;7.47;;;;;;;16.49;59.47;100975.53;5015432;28;20106;-85
2022/12/17 14:37:07;;;;;;;21.95;7.70;;;;;;;16.30;59.65;100952.59;5015295;28;20046;-89
2022/12/17 15:39:47;;;;;;;33.35;16.77;;;;;;;15.23;63.60;100963.81;5187670;22;20046;-85
2022/12/17 16:17:34;;;;;;;35.58;15.13;;;;;;;14.67;67.20;101006.56;5007935;28;20054;-89
2022/12/17 16:20:39;;;;;;;27.10;15.07;;;;;;;14.46;67.11;100994.50;4995023;28;20066;-91
2022/12/17 16:23:16;;;;;;;32.55;15.18;;;;;;;14.40;67.62;100997.06;4980802;28;20058;-88
2022/12/17 16:26:25;;;;;;;16.70;12.48;;;;;;;14.64;67.43;101039.41;4994703;28;20055;-89
2022/12/17 16:29:55;;;;;;;31.20;13.45;;;;;;;14.36;67.73;101026.34;4986402;28;20105;-89
2022/12/17 16:35:01;;;;;;;26.75;13.15;;;;;;;14.27;68.21;101012.00;4985818;28;20057;-92
2022/12/17 16:37:27;;;;;;;30.02;13.82;;;;;;;14.46;68.04;101040.47;4957209;28;20027;-93
2022/12/17 16:53:07;;;;;;;48.10;17.35;;;;;;;14.32;68.92;101061.00;5051229;28;20069;-89
2022/12/17 16:55:51;;;;;;;35.25;16.23;;;;;;;14.28;68.50;101053.41;5027250;28;20149;-89
2022/12/17 16:58:29;;;;;;;44.33;17.60;;;;;;;14.45;68.04;101073.13;5019589;28;20042;-90
2022/12/17 17:01:27;;;;;;;32.85;17.02;;;;;;;14.41;68.20;101091.56;5012357;28;20065;-87
2022/12/17 17:04:08;;;;;;;29.98;16.55;;;;;;;14.35;67.86;101106.66;4992044;28;20450;-89
2022/12/17 17:06:43;;;;;;;34.50;15.88;;;;;;;14.18;68.02;101079.81;5028059;28;20141;-86
2022/12/17 17:09:11;;;;;;;25.02;13.38;;;;;;;14.17;67.55;101088.97;4994814;28;20037;-88
2022/12/17 17:11:41;;;;;;;23.88;12.98;;;;;;;14.08;67.74;101097.09;5003832;28;20045;-86
2022/12/17 17:14:20;;;;;;;23.60;13.90;;;;;;;14.26;67.28;101117.69;5032178;28;20060;-87
2022/12/17 17:16:48;;;;;;;31.40;14.02;;;;;;;14.15;67.19;101098.09;5014939;28;20075;-87
2022/12/17 17:20:10;;;;;;;23.92;13.43;;;;;;;14.09;66.97;101090.69;4996053;28;20122;-92
2022/12/17 17:23:29;;;;;;;23.45;13.55;;;;;;;14.06;67.34;101118.03;5035307;28;20046;-91
2022/12/17 17:26:54;;;;;;;25.75;14.02;;;;;;;14.25;67.25;101137.59;5024642;28;20056;-93
2022/12/17 17:30:11;;;;;;;29.42;13.38;;;;;;;14.05;67.45;101126.34;5034043;28;20029;-91
2022/12/17 17:32:37;;;;;;;25.35;14.45;;;;;;;14.00;67.37;101132.28;4980825;28;20046;-91
2022/12/17 17:40:41;;;;;;;35.45;16.90;;;;;;;14.04;66.65;101121.94;3520240;22;20200;-92
2022/12/17 17:43:29;;;;;;;31.98;15.93;;;;;;;14.18;66.42;101142.03;5022124;28;20113;-91
2022/12/17 18:14:54;;;;;;;22.88;11.77;;;;;;;13.24;66.69;101147.78;4996981;28;20081;-90
2022/12/17 18:17:26;;;;;;;21.67;12.40;;;;;;;13.36;66.63;101164.53;4956718;28;20050;-89
2022/12/17 18:20:22;;;;;;;27.58;13.23;;;;;;;13.37;66.44;101154.56;5011546;28;20058;-92
2022/12/17 18:23:16;;;;;;;33.10;15.85;;;;;;;13.48;67.39;101184.78;5009439;28;20054;-89
2022/12/17 18:26:24;;;;;;;33.85;16.20;;;;;;;13.46;68.00;101180.56;4998684;28;20043;-91
2022/12/17 18:45:28;;;;;;;27.10;12.98;;;;;;;12.72;70.42;101204.63;5095333;23;20057;-89
2022/12/17 18:47:55;;;;;;;23.38;10.75;;;;;;;12.43;69.95;101160.00;5000151;28;20117;-85
2022/12/17 18:50:45;;;;;;;18.23;8.88;;;;;;;12.56;68.97;101154.16;4994807;28;20034;-90
2022/12/17 18:53:14;;;;;;;15.60;8.18;;;;;;;12.68;68.92;101165.50;4992364;28;20042;-88
2022/12/17 18:55:59;;;;;;;13.95;7.90;;;;;;;12.89;67.99;101190.19;4990374;28;20061;-91
2022/12/17 18:58:56;;;;;;;16.80;7.82;;;;;;;12.92;67.86;101172.00;5000529;28;20057;-88
2022/12/17 19:01:26;;;;;;;11.45;6.72;;;;;;;13.13;67.32;101190.44;4992076;28;20037;-88
2022/12/17 19:04:17;;;;;;;17.67;7.22;;;;;;;13.15;67.57;101186.56;4974499;28;20093;-88
2022/12/17 19:06:47;;;;;;;14.25;6.63;;;;;;;13.18;67.21;101188.94;5008157;28;20069;-91
2022/12/17 19:09:45;;;;;;;13.10;6.50;;;;;;;13.22;67.23;101198.38;4958755;28;20062;-91
2022/12/17 19:12:19;;;;;;;15.63;6.38;;;;;;;13.17;67.14;101198.03;5005699;28;20212;-91
2022/12/17 19:18:49;;;;;;;;;;;;;;;;;;;;;
2022/12/17 19:21:47;;;;;;;12.60;7.00;;;;;;;13.14;66.63;101229.94;5018679;28;20061;-89
2022/12/17 19:24:40;;;;;;;12.45;7.43;;;;;;;13.10;66.93;101234.81;4995247;28;20154;-90
2022/12/17 19:34:54;;;;;;;18.00;9.02;;;;;;;12.97;68.11;101245.22;5029882;28;20053;-89
2022/12/17 19:37:31;;;;;;;17.90;9.30;;;;;;;12.95;68.10;101261.59;5011594;28;20090;-90
2022/12/17 19:40:11;;;;;;;14.75;8.57;;;;;;;12.70;68.17;101227.38;5013121;28;20069;-88
2022/12/17 19:42:48;;;;;;;20.25;9.43;;;;;;;12.79;68.17;101240.75;5013124;28;20038;-90
2022/12/17 19:45:43;;;;;;;22.92;9.30;;;;;;;12.76;68.25;101227.59;5016371;28;20022;-90
2022/12/17 19:53:26;;;;;;;14.45;7.30;;;;;;;12.76;67.88;101206.00;5164912;22;20062;-90
2022/12/17 19:56:38;;;;;;;14.30;7.05;;;;;;;12.75;68.05;101215.09;5008733;28;20477;-89
2022/12/17 20:02:16;;;;;;;11.68;5.55;;;;;;;12.66;68.62;101237.66;5094893;23;20049;-89
2022/12/17 20:04:45;;;;;;;9.85;5.22;;;;;;;12.74;68.02;101240.41;5059954;22;20323;-88
2022/12/17 20:07:24;;;;;;;15.07;5.30;;;;;;;12.89;68.37;101283.81;5024966;28;20098;-90
2022/12/17 20:10:32;;;;;;;11.30;5.32;;;;;;;12.91;68.30;101273.69;4985175;28;20057;-93
2022/12/17 20:13:14;;;;;;;9.15;5.32;;;;;;;12.71;68.73;101262.28;5025102;28;20058;-90
2022/12/17 20:16:03;;;;;;;7.78;4.93;;;;;;;12.74;68.78;101275.47;5014097;28;20050;-88
2022/12/17 20:18:59;;;;;;;8.95;4.72;;;;;;;12.71;68.58;101281.16;5017250;28;20074;-89
2022/12/17 20:21:34;;;;;;;7.53;3.97;;;;;;;12.69;68.45;101275.13;5028289;28;20081;-89
2022/12/17 20:24:27;;;;;;;7.97;4.38;;;;;;;12.70;68.44;101271.41;4988455;28;20097;-89
2022/12/17 20:26:54;;;;;;;8.18;4.65;;;;;;;12.80;68.76;101292.88;5023745;28;20045;-88
2022/12/17 20:29:56;;;;;;;10.80;4.40;;;;;;;12.92;68.35;101306.94;4998136;28;20076;-88
2022/12/17 20:32:52;;;;;;;7.80;4.10;;;;;;;12.75;68.46;101279.00;5022007;28;20086;-90
2022/12/17 21:04:02;;;;;;;6.65;4.25;;;;;;;12.60;68.45;101325.47;5022337;28;20050;-89
2022/12/17 21:07:18;;;;;;;7.88;4.18;;;;;;;12.63;68.36;101345.88;5001779;28;20144;-91
2022/12/17 21:10:23;;;;;;;7.55;4.20;;;;;;;12.63;69.01;101362.06;5003651;28;20044;-92
2022/12/17 21:33:59;;;;;;;8.63;3.67;;;;;;;12.71;68.73;101401.72;4594864;23;20069;-89
2022/12/17 21:37:30;;;;;;;6.88;3.60;;;;;;;12.60;68.73;101405.53;5026280;28;20053;-92
2022/12/17 22:59:04;;;;;;;5.60;3.15;;;;;;;11.37;67.36;101413.09;4995837;28;20065;-90
2022/12/17 23:20:36;;;;;;;7.13;3.58;;;;;;;11.10;68.71;101448.91;5001458;28;20106;-89
2022/12/17 23:23:46;;;;;;;8.00;3.80;;;;;;;11.24;69.06;101490.66;4983645;28;20061;-90
2022/12/17 23:29:07;;;;;;;6.72;3.80;;;;;;;11.09;68.72;101457.09;4961532;28;20027;-92
2022/12/17 23:31:41;;;;;;;6.63;4.00;;;;;;;11.15;69.23;101495.06;4972277;28;20062;-90
2022/12/17 23:37:19;;;;;;;8.15;3.80;;;;;;;10.80;69.71;101478.69;5123326;23;20100;-91
